Time;durP1;ratioP1;P1;durP2;ratioP2;P2;SDS_P1;SDS_P2;PMS_P1;PMS_P2;Temp;Humidity;BMP_temperature;BMP_pressure;BME280_temperature;BME280_humidity;BME280_pressure;Samples;Min_cycle;Max_cycle;Signal;HPM_P1;HPM_P2
2021/03/08 00:00:00;;;;;;;1.10;1.10;;;;;;;3.44;100.00;101359.38;5076366;28;20449;-68
2021/03/08 00:02:26;;;;;;;0.40;0.30;;;;;;;3.44;100.00;101357.50;5075758;28;20485;-67
2021/03/08 00:04:52;;;;;;;0.60;0.50;;;;;;;3.52;100.00;101359.03;5075945;28;21005;-66
2021/03/08 00:07:19;;;;;;;1.93;0.57;;;;;;;3.54;100.00;101359.59;5075939;28;20964;-67
2021/03/08 00:09:45;;;;;;;0.80;0.70;;;;;;;3.60;100.00;101357.84;5076177;28;20448;-67
2021/03/08 00:12:11;;;;;;;3.17;0.83;;;;;;;3.61;100.00;101364.84;5075928;28;20461;-66
2021/03/08 00:14:37;;;;;;;3.90;2.47;;;;;;;3.59;100.00;101361.59;5075944;28;20473;-67
2021/03/08 00:17:04;;;;;;;2.60;0.50;;;;;;;3.61;100.00;101371.00;5076174;28;20520;-67
2021/03/08 00:19:30;;;;;;;0.40;0.30;;;;;;;3.65;100.00;101366.00;5076333;28;20472;-66
2021/03/08 00:21:56;;;;;;;0.40;0.30;;;;;;;3.59;100.00;101366.94;5076119;28;20516;-67
2021/03/08 00:24:23;;;;;;;2.90;1.53;;;;;;;3.62;100.00;101380.66;5075606;28;20447;-67
2021/03/08 00:26:48;;;;;;;0.40;0.40;;;;;;;3.58;100.00;101376.81;5075531;28;20957;-66
2021/03/08 00:29:14;;;;;;;0.97;0.53;;;;;;;3.60;100.00;101374.75;5075707;28;20498;-66
2021/03/08 00:31:40;;;;;;;4.63;1.27;;;;;;;3.59;100.00;101369.63;5075714;28;20954;-66
2021/03/08 00:34:06;;;;;;;0.73;0.73;;;;;;;3.58;100.00;101365.31;5075652;28;20821;-66
2021/03/08 00:36:32;;;;;;;0.43;0.43;;;;;;;3.58;100.00;101368.78;5075548;28;20579;-66
2021/03/08 00:38:58;;;;;;;1.13;0.93;;;;;;;3.53;100.00;101372.16;5075087;28;20507;-66
2021/03/08 00:41:25;;;;;;;1.00;0.80;;;;;;;3.60;100.00;101381.97;5075321;28;20519;-66
2021/03/08 00:43:51;;;;;;;0.60;0.60;;;;;;;3.57;100.00;101372.53;5075090;28;20986;-66
2021/03/08 00:46:17;;;;;;;0.40;0.30;;;;;;;3.56;100.00;101378.94;5075265;28;20502;-67
2021/03/08 00:48:43;;;;;;;0.40;0.33;;;;;;;3.56;100.00;101370.91;5075290;28;20444;-66
2021/03/08 00:51:09;;;;;;;3.07;2.23;;;;;;;3.51;100.00;101370.78;5075296;28;20810;-66
2021/03/08 00:53:35;;;;;;;0.40;0.30;;;;;;;3.45;100.00;101371.72;5074824;28;20477;-66
2021/03/08 00:56:01;;;;;;;2.70;1.10;;;;;;;3.51;100.00;101373.47;5074903;28;20468;-67
2021/03/08 00:58:28;;;;;;;0.40;0.30;;;;;;;3.50;100.00;101383.38;5074848;28;20449;-66
2021/03/08 01:00:54;;;;;;;0.63;0.40;;;;;;;3.44;100.00;101386.16;5075140;28;20541;-66
2021/03/08 01:03:20;;;;;;;1.50;1.40;;;;;;;3.46;100.00;101384.09;5075042;28;20526;-66
2021/03/08 01:05:46;;;;;;;0.50;0.40;;;;;;;3.46;100.00;101381.41;5075000;28;20477;-67
2021/03/08 01:08:12;;;;;;;1.40;1.30;;;;;;;3.49;100.00;101384.41;5074959;28;20810;-66
2021/03/08 01:10:38;;;;;;;0.50;0.50;;;;;;;3.43;100.00;101377.31;5074836;28;20502;-66
2021/03/08 01:13:04;;;;;;;0.40;0.30;;;;;;;3.46;100.00;101374.19;5074751;28;20445;-67
2021/03/08 01:15:31;;;;;;;0.50;0.40;;;;;;;3.46;100.00;101370.69;5074801;28;20830;-66
2021/03/08 01:17:57;;;;;;;0.50;0.50;;;;;;;3.50;100.00;101369.97;5074429;28;20943;-66
2021/03/08 01:20:23;;;;;;;1.60;0.93;;;;;;;3.47;100.00;101372.31;5074687;28;20440;-67
2021/03/08 01:22:50;;;;;;;3.20;1.10;;;;;;;3.48;100.00;101380.09;5074582;28;20479;-66
2021/03/08 01:25:17;;;;;;;0.40;0.30;;;;;;;3.46;100.00;101378.72;5074268;28;20462;-67
2021/03/08 01:27:43;;;;;;;2.67;1.20;;;;;;;3.45;100.00;101371.72;5074447;28;20523;-66
2021/03/08 01:30:14;;;;;;;0.40;0.33;;;;;;;3.51;100.00;101379.63;5074436;28;20436;-67
2021/03/08 01:32:41;;;;;;;1.83;0.50;;;;;;;3.49;100.00;101391.63;5074414;28;20441;-66
2021/03/08 01:35:08;;;;;;;0.50;0.43;;;;;;;3.46;100.00;101384.09;5074331;28;20514;-66
2021/03/08 01:37:34;;;;;;;0.60;0.60;;;;;;;3.44;100.00;101380.81;5074020;28;20964;-66
2021/03/08 01:40:01;;;;;;;0.90;0.83;;;;;;;3.41;100.00;101381.25;5073890;28;20950;-66
2021/03/08 01:42:27;;;;;;;1.60;0.77;;;;;;;3.36;100.00;101381.97;5073766;28;20994;-66
2021/03/08 01:44:53;;;;;;;0.50;0.50;;;;;;;3.34;100.00;101377.91;5074016;28;20465;-66
2021/03/08 01:47:19;;;;;;;0.53;0.53;;;;;;;3.27;100.00;101378.00;5074195;28;20444;-66
2021/03/08 01:49:46;;;;;;;1.67;1.50;;;;;;;3.17;100.00;101380.47;5074425;28;20874;-67
2021/03/08 01:52:13;;;;;;;1.43;0.63;;;;;;;3.12;100.00;101383.81;5074130;28;20438;-66
2021/03/08 01:54:39;;;;;;;0.40;0.30;;;;;;;3.11;100.00;101387.56;5073693;28;20473;-66
2021/03/08 01:57:07;;;;;;;0.83;0.83;;;;;;;3.11;100.00;101394.78;5073944;28;20446;-65
2021/03/08 01:59:33;;;;;;;0.40;0.30;;;;;;;3.10;100.00;101385.94;5073833;28;20453;-66
2021/03/08 02:01:59;;;;;;;0.40;0.30;;;;;;;3.08;100.00;101382.66;5073711;28;20488;-66
2021/03/08 02:04:25;;;;;;;0.40;0.30;;;;;;;2.91;100.00;101385.19;5073598;28;20479;-66
2021/03/08 02:06:52;;;;;;;0.50;0.40;;;;;;;2.94;100.00;101386.59;5073990;28;20451;-66
2021/03/08 02:09:18;;;;;;;1.03;0.93;;;;;;;2.96;100.00;101389.84;5073722;28;20535;-65
2021/03/08 02:11:50;;;;;;;1.57;1.13;;;;;;;2.96;100.00;101392.53;5074103;28;20438;-66
2021/03/08 02:14:27;;;;;;;0.50;0.40;;;;;;;2.89;100.00;101397.19;5074321;28;20468;-66
2021/03/08 02:16:58;;;;;;;0.47;0.40;;;;;;;2.87;100.00;101393.91;5074256;28;20436;-66
2021/03/08 02:19:51;;;;;;;0.87;0.50;;;;;;;2.76;100.00;101392.84;5074030;28;20418;-66
2021/03/08 02:22:54;;;;;;;0.40;0.30;;;;;;;2.64;100.00;101398.16;5070946;28;20481;-66
2021/03/08 02:25:35;;;;;;;0.40;0.30;;;;;;;2.51;100.00;101390.31;5073789;28;20464;-66
2021/03/08 02:28:35;;;;;;;0.70;0.60;;;;;;;2.48;100.00;101396.16;5073643;28;20421;-66
2021/03/08 02:31:05;;;;;;;0.40;0.30;;;;;;;2.39;100.00;101397.47;5073653;28;20429;-66
2021/03/08 02:33:33;;;;;;;0.50;0.50;;;;;;;2.34;100.00;101402.69;5073622;28;20458;-66
2021/03/08 02:36:03;;;;;;;0.70;0.67;;;;;;;2.31;100.00;101395.16;5073227;28;21012;-66
2021/03/08 02:38:33;;;;;;;0.40;0.30;;;;;;;2.26;100.00;101403.84;5074447;28;20449;-66
2021/03/08 02:41:02;;;;;;;0.40;0.30;;;;;;;2.12;100.00;101397.00;5073906;28;20445;-65
2021/03/08 02:43:32;;;;;;;0.40;0.30;;;;;;;2.06;100.00;101408.59;5073718;28;20468;-66
2021/03/08 02:46:01;;;;;;;0.73;0.73;;;;;;;1.89;100.00;101403.84;5074333;28;20444;-66
2021/03/08 02:48:32;;;;;;;0.40;0.30;;;;;;;1.91;100.00;101417.00;5073195;28;20938;-66
2021/03/08 02:51:02;;;;;;;0.40;0.30;;;;;;;1.83;100.00;101409.28;5073759;28;20425;-66
2021/03/08 02:53:32;;;;;;;0.40;0.30;;;;;;;1.80;100.00;101407.03;5073241;28;20479;-67
2021/03/08 02:56:02;;;;;;;0.40;0.30;;;;;;;1.79;100.00;101413.44;5081919;22;20502;-66
2021/03/08 02:58:33;;;;;;;0.60;0.57;;;;;;;1.63;100.00;101412.16;5052814;28;20860;-67
2021/03/08 03:01:01;;;;;;;0.40;0.30;;;;;;;1.61;100.00;101415.06;5052923;28;20430;-66
2021/03/08 03:03:31;;;;;;;0.40;0.30;;;;;;;1.58;100.00;101412.81;5052926;28;20446;-67
2021/03/08 03:05:59;;;;;;;0.50;0.40;;;;;;;1.48;100.00;101418.66;5052548;28;20935;-66
2021/03/08 03:08:26;;;;;;;0.80;0.73;;;;;;;1.41;100.00;101417.91;5052886;28;20449;-66
2021/03/08 03:10:52;;;;;;;1.50;0.53;;;;;;;1.36;100.00;101414.25;5052789;28;20442;-66
2021/03/08 03:13:18;;;;;;;0.40;0.30;;;;;;;1.30;100.00;101425.81;5052831;28;20800;-67
2021/03/08 03:15:45;;;;;;;0.40;0.30;;;;;;;1.22;99.99;101425.03;5052772;28;20828;-67
2021/03/08 03:18:13;;;;;;;0.40;0.30;;;;;;;1.15;99.99;101426.97;5052831;28;20506;-67
2021/03/08 03:20:41;;;;;;;0.40;0.30;;;;;;;1.13;100.00;101421.03;5053224;28;20500;-67
2021/03/08 03:23:09;;;;;;;0.40;0.30;;;;;;;1.05;100.00;101426.63;5056707;28;20486;-67
2021/03/08 03:25:35;;;;;;;0.77;0.77;;;;;;;0.97;100.00;101427.72;5056333;28;20884;-67
2021/03/08 03:28:02;;;;;;;3.97;0.60;;;;;;;0.96;99.73;101431.41;5056704;28;20438;-67
2021/03/08 03:30:30;;;;;;;0.40;0.30;;;;;;;0.94;100.00;101433.47;5056578;28;20438;-67
2021/03/08 03:32:57;;;;;;;0.40;0.30;;;;;;;0.88;100.00;101434.31;5056577;28;20487;-67
2021/03/08 03:35:25;;;;;;;0.40;0.40;;;;;;;0.87;99.88;101442.56;5056537;28;20469;-67
2021/03/08 03:37:53;;;;;;;0.40;0.30;;;;;;;0.90;99.78;101450.13;5056446;28;20446;-67
2021/03/08 03:40:20;;;;;;;0.40;0.30;;;;;;;0.88;100.00;101444.19;5056201;28;20446;-67
2021/03/08 03:42:48;;;;;;;0.40;0.30;;;;;;;0.88;100.00;101446.84;5056353;28;20482;-67
2021/03/08 03:45:16;;;;;;;0.40;0.30;;;;;;;0.88;100.00;101449.50;5056466;28;20904;-66
2021/03/08 03:47:42;;;;;;;0.40;0.30;;;;;;;0.86;100.00;101451.59;5056292;28;20445;-66
2021/03/08 03:50:10;;;;;;;0.40;0.30;;;;;;;0.83;100.00;101460.81;5056407;28;20831;-67
2021/03/08 03:52:37;;;;;;;0.40;0.30;;;;;;;0.82;100.00;101461.06;5056188;28;20442;-66
2021/03/08 03:55:07;;;;;;;1.33;1.23;;;;;;;0.81;100.00;101459.44;5055952;28;20474;-71
2021/03/08 03:57:40;;;;;;;0.83;0.60;;;;;;;0.71;100.00;101449.22;5056120;28;20442;-68
2021/03/08 04:00:08;;;;;;;0.40;0.30;;;;;;;0.67;100.00;101456.84;5056219;28;20422;-68
2021/03/08 04:02:40;;;;;;;0.40;0.40;;;;;;;0.63;100.00;101462.81;5055982;28;20485;-68
2021/03/08 04:05:10;;;;;;;3.60;1.43;;;;;;;0.70;100.00;101471.56;5056039;28;20465;-68
2021/03/08 04:07:40;;;;;;;0.40;0.30;;;;;;;0.61;100.00;101467.50;5055943;28;20450;-68
2021/03/08 04:10:11;;;;;;;0.40;0.30;;;;;;;0.61;100.00;101471.00;5055980;28;20446;-68
2021/03/08 04:12:38;;;;;;;0.40;0.30;;;;;;;0.48;100.00;101477.19;5055939;28;20422;-68
2021/03/08 04:15:07;;;;;;;0.40;0.30;;;;;;;0.33;100.00;101481.19;5055929;28;20527;-68
2021/03/08 04:17:34;;;;;;;0.40;0.30;;;;;;;0.24;100.00;101488.59;5055749;28;20449;-68
2021/03/08 04:20:01;;;;;;;0.70;0.50;;;;;;;0.26;100.00;101486.53;5055944;28;20446;-68
2021/03/08 04:22:30;;;;;;;0.50;0.50;;;;;;;0.28;100.00;101494.31;5055618;28;20482;-68
2021/03/08 04:24:58;;;;;;;0.40;0.30;;;;;;;0.17;100.00;101495.78;5055558;28;20466;-68
2021/03/08 04:27:26;;;;;;;0.40;0.30;;;;;;;0.22;100.00;101496.81;5055631;28;20442;-68
2021/03/08 04:29:54;;;;;;;0.40;0.30;;;;;;;0.20;100.00;101496.19;5055564;28;20456;-68
2021/03/08 04:32:23;;;;;;;0.40;0.30;;;;;;;0.21;100.00;101497.00;5054865;28;20446;-68
2021/03/08 04:34:51;;;;;;;0.40;0.30;;;;;;;0.21;100.00;101503.13;5055387;28;20869;-68
2021/03/08 04:37:17;;;;;;;0.40;0.30;;;;;;;-0.05;100.00;101513.84;5055116;28;20771;-68
2021/03/08 04:39:46;;;;;;;0.40;0.33;;;;;;;-0.02;100.00;101519.59;5055307;28;20457;-68
2021/03/08 04:42:13;;;;;;;0.50;0.30;;;;;;;-0.07;100.00;101515.91;5055280;28;20563;-68
2021/03/08 04:44:43;;;;;;;0.40;0.30;;;;;;;-0.13;100.00;101520.22;5055170;28;20469;-69
2021/03/08 04:47:09;;;;;;;0.40;0.30;;;;;;;-0.10;100.00;101524.31;5055225;28;20449;-68
2021/03/08 04:49:36;;;;;;;0.40;0.30;;;;;;;-0.04;100.00;101521.66;5055127;28;20465;-69
2021/03/08 04:52:03;;;;;;;0.40;0.30;;;;;;;-0.09;100.00;101518.78;5055155;28;20457;-69
2021/03/08 04:54:31;;;;;;;0.40;0.30;;;;;;;-0.13;100.00;101520.22;5054826;28;20477;-68
2021/03/08 04:56:57;;;;;;;0.40;0.30;;;;;;;-0.23;100.00;101516.34;5054800;28;20426;-69
2021/03/08 04:59:23;;;;;;;0.40;0.30;;;;;;;-0.27;100.00;101518.59;5054997;28;20447;-68
2021/03/08 05:01:53;;;;;;;0.40;0.30;;;;;;;-0.28;100.00;101520.44;5054889;28;20485;-68
2021/03/08 05:04:21;;;;;;;0.40;0.30;;;;;;;-0.33;100.00;101522.91;5055176;28;20461;-68
2021/03/08 05:06:49;;;;;;;1.47;1.37;;;;;;;-0.30;100.00;101513.69;5054518;28;20967;-68
2021/03/08 05:09:15;;;;;;;0.40;0.30;;;;;;;-0.16;100.00;101528.63;5054472;28;20955;-67
2021/03/08 05:11:43;;;;;;;0.40;0.30;;;;;;;-0.36;100.00;101531.28;5054777;28;20442;-67
2021/03/08 05:14:12;;;;;;;0.40;0.30;;;;;;;-0.39;100.00;101530.91;5054336;28;20963;-68
2021/03/08 05:16:43;;;;;;;0.50;0.47;;;;;;;-0.31;100.00;101536.84;5054561;28;20453;-68
2021/03/08 05:19:11;;;;;;;0.40;0.30;;;;;;;-0.29;100.00;101540.09;5054680;28;20427;-67
2021/03/08 05:21:38;;;;;;;0.40;0.30;;;;;;;-0.34;100.00;101547.06;5054502;28;20486;-68
2021/03/08 05:24:05;;;;;;;0.40;0.30;;;;;;;-0.31;100.00;101539.50;5054028;28;20461;-67
2021/03/08 05:26:32;;;;;;;1.23;0.63;;;;;;;-0.33;100.00;101546.84;5054375;28;20499;-68
2021/03/08 05:28:59;;;;;;;0.40;0.30;;;;;;;-0.48;99.00;101551.56;5054430;28;20438;-68
2021/03/08 05:31:30;;;;;;;0.40;0.30;;;;;;;-0.62;99.17;101558.72;5054754;28;20442;-68
2021/03/08 05:34:01;;;;;;;0.40;0.30;;;;;;;-0.57;99.37;101552.78;5055563;28;20427;-68
2021/03/08 05:36:28;;;;;;;0.40;0.30;;;;;;;-0.62;99.16;101557.88;5054845;28;20480;-68
2021/03/08 05:38:55;;;;;;;0.40;0.30;;;;;;;-0.81;99.17;101565.63;5054391;28;20442;-67
2021/03/08 05:41:28;;;;;;;0.50;0.40;;;;;;;-0.82;98.63;101571.97;5054172;28;20442;-69
2021/03/08 05:43:58;;;;;;;0.40;0.30;;;;;;;-0.80;99.18;101575.25;5053724;28;20427;-70
2021/03/08 05:46:34;;;;;;;0.40;0.30;;;;;;;-0.72;99.20;101576.91;5053397;28;21013;-69
2021/03/08 05:49:25;;;;;;;0.40;0.30;;;;;;;-0.65;99.27;101580.41;5054218;28;20422;-69
2021/03/08 05:52:33;;;;;;;0.40;0.30;;;;;;;-0.90;100.00;101577.47;5053708;28;20426;-70
2021/03/08 05:55:22;;;;;;;0.40;0.30;;;;;;;-0.86;100.00;101588.53;5053604;28;21002;-69
2021/03/08 05:58:13;;;;;;;0.40;0.30;;;;;;;-0.87;99.73;101598.34;5054007;28;20438;-68
2021/03/08 06:00:54;;;;;;;0.60;0.57;;;;;;;-0.85;99.81;101600.78;5053856;28;20422;-68
2021/03/08 06:03:37;;;;;;;0.40;0.30;;;;;;;-0.92;99.71;101592.00;5053462;28;20983;-69
2021/03/08 06:06:38;;;;;;;0.50;0.43;;;;;;;-1.08;99.56;101604.63;5053711;28;20473;-68
2021/03/08 06:09:22;;;;;;;0.40;0.40;;;;;;;-1.13;99.60;101606.22;5053796;28;20418;-69
2021/03/08 06:11:55;;;;;;;0.40;0.30;;;;;;;-1.12;99.39;101607.88;5053637;28;20434;-70
2021/03/08 06:14:28;;;;;;;0.40;0.30;;;;;;;-1.21;99.37;101614.38;5053256;28;20469;-69
2021/03/08 06:16:55;;;;;;;0.40;0.30;;;;;;;-1.08;99.54;101620.56;5053593;28;20431;-70
2021/03/08 06:19:22;;;;;;;0.40;0.30;;;;;;;-1.09;98.31;101620.78;5053579;28;20446;-69
2021/03/08 06:21:49;;;;;;;0.40;0.30;;;;;;;-1.04;98.54;101627.13;5053373;28;20478;-69
2021/03/08 06:24:15;;;;;;;0.40;0.30;;;;;;;-0.88;98.46;101627.81;5053014;28;20450;-69
2021/03/08 06:26:44;;;;;;;0.40;0.30;;;;;;;-0.96;98.44;101627.97;5053370;28;20496;-69
2021/03/08 06:29:10;;;;;;;0.70;0.50;;;;;;;-1.00;98.69;101632.06;5053332;28;20446;-69
2021/03/08 06:31:36;;;;;;;0.40;0.30;;;;;;;-1.07;98.12;101643.47;5053336;28;20434;-69
2021/03/08 06:34:02;;;;;;;0.40;0.30;;;;;;;-1.02;98.60;101642.88;5053432;28;20454;-69
2021/03/08 06:36:31;;;;;;;0.40;0.37;;;;;;;-0.86;98.23;101652.34;5053049;28;20446;-69
2021/03/08 06:38:57;;;;;;;0.40;0.30;;;;;;;-0.86;97.69;101650.50;5053242;28;20447;-69
2021/03/08 06:41:23;;;;;;;0.40;0.30;;;;;;;-0.91;98.66;101654.78;5053211;28;20853;-69
2021/03/08 06:43:50;;;;;;;0.40;0.30;;;;;;;-0.93;99.22;101654.16;5053255;28;20446;-69
2021/03/08 06:46:17;;;;;;;0.40;0.30;;;;;;;-0.85;98.97;101660.13;5053186;28;20470;-69
2021/03/08 06:48:47;;;;;;;0.83;0.50;;;;;;;-0.79;99.86;101662.00;5053144;28;20434;-68
2021/03/08 06:51:14;;;;;;;0.40;0.30;;;;;;;-0.61;100.00;101665.97;5053183;28;20438;-68
2021/03/08 06:53:40;;;;;;;0.40;0.30;;;;;;;-0.47;100.00;101664.97;5053151;28;20446;-69
2021/03/08 06:56:17;;;;;;;0.40;0.30;;;;;;;-0.39;100.00;101672.75;5052388;28;20478;-69
2021/03/08 06:58:44;;;;;;;0.40;0.30;;;;;;;-0.24;100.00;101671.75;5053199;28;20438;-69
2021/03/08 07:01:31;;;;;;;0.40;0.30;;;;;;;-0.13;100.00;101677.31;5053173;28;20438;-69
2021/03/08 07:03:58;;;;;;;0.40;0.30;;;;;;;-0.17;100.00;101680.59;5052925;28;20501;-69
2021/03/08 07:06:24;;;;;;;0.40;0.30;;;;;;;-0.13;100.00;101681.81;5052918;28;20438;-69
2021/03/08 07:08:51;;;;;;;0.40;0.30;;;;;;;-0.08;100.00;101690.03;5052925;28;20442;-69
2021/03/08 07:11:19;;;;;;;0.60;0.53;;;;;;;-0.09;100.00;101693.69;5052636;28;20442;-69
2021/03/08 07:13:45;;;;;;;0.40;0.30;;;;;;;0.03;100.00;101691.25;5053036;28;20473;-69
2021/03/08 07:16:11;;;;;;;0.40;0.30;;;;;;;0.05;100.00;101694.53;5052549;28;20978;-69
2021/03/08 07:18:40;;;;;;;0.40;0.30;;;;;;;0.19;100.00;101697.00;5053043;28;20461;-69
2021/03/08 07:21:17;;;;;;;1.60;0.80;;;;;;;0.25;100.00;101706.84;5052643;28;20485;-69
2021/03/08 07:23:45;;;;;;;0.40;0.30;;;;;;;0.28;99.87;101720.78;5052792;28;20411;-69
2021/03/08 07:26:13;;;;;;;0.40;0.30;;;;;;;0.30;98.92;101716.06;5052871;28;20472;-69
2021/03/08 07:28:40;;;;;;;0.40;0.30;;;;;;;0.33;98.75;101727.13;5052749;28;20446;-69
2021/03/08 07:31:07;;;;;;;0.40;0.30;;;;;;;0.42;98.70;101719.75;5052842;28;20458;-69
2021/03/08 07:33:33;;;;;;;0.40;0.30;;;;;;;0.46;98.48;101728.97;5052558;28;20923;-70
2021/03/08 07:36:00;;;;;;;0.40;0.30;;;;;;;0.49;98.73;101736.56;5052767;28;20465;-69
2021/03/08 07:38:31;;;;;;;0.40;0.30;;;;;;;0.56;98.24;101733.88;5052377;28;20438;-68
2021/03/08 07:41:14;;;;;;;0.40;0.30;;;;;;;0.60;97.32;101730.59;5052712;28;20438;-69
2021/03/08 07:43:41;;;;;;;0.40;0.30;;;;;;;0.63;97.51;101734.72;5052371;28;20958;-69
2021/03/08 07:46:26;;;;;;;0.40;0.30;;;;;;;0.69;97.81;101734.69;5052568;28;20462;-69
2021/03/08 07:48:52;;;;;;;0.40;0.30;;;;;;;0.68;96.07;101738.41;5052751;28;20430;-69
2021/03/08 07:51:20;;;;;;;0.40;0.30;;;;;;;0.73;96.46;101743.91;5052642;28;20448;-69
2021/03/08 07:53:46;;;;;;;0.40;0.30;;;;;;;0.74;95.69;101739.41;5052670;28;20857;-69
2021/03/08 07:56:12;;;;;;;0.40;0.40;;;;;;;0.79;95.34;101754.78;5052147;28;20481;-70
2021/03/08 07:58:39;;;;;;;0.40;0.30;;;;;;;0.84;94.81;101752.31;5052398;28;20959;-69
2021/03/08 08:01:07;;;;;;;0.40;0.30;;;;;;;0.97;94.93;101754.94;5052768;28;20508;-69
2021/03/08 08:03:33;;;;;;;1.00;0.50;;;;;;;1.01;94.46;101756.19;5052548;28;20567;-70
2021/03/08 08:06:01;;;;;;;0.40;0.30;;;;;;;1.10;94.07;101751.44;5052405;28;20466;-69
2021/03/08 08:08:30;;;;;;;0.40;0.30;;;;;;;1.15;93.39;101752.47;5054215;28;20441;-68
2021/03/08 08:10:57;;;;;;;0.40;0.30;;;;;;;1.23;93.77;101757.56;5055439;28;20453;-69
2021/03/08 08:13:27;;;;;;;0.40;0.30;;;;;;;1.33;93.16;101750.97;5055652;28;20442;-70
2021/03/08 08:15:54;;;;;;;0.40;0.30;;;;;;;1.27;90.34;101757.97;5055635;28;21056;-69
2021/03/08 08:18:22;;;;;;;0.40;0.30;;;;;;;1.39;89.94;101756.28;5055982;28;20445;-70
2021/03/08 08:20:51;;;;;;;0.40;0.40;;;;;;;1.37;88.22;101757.50;5055905;28;20801;-70
2021/03/08 08:23:20;;;;;;;0.40;0.30;;;;;;;1.46;88.15;101756.25;5055791;28;20481;-70
2021/03/08 08:25:47;;;;;;;0.40;0.30;;;;;;;1.60;88.81;101765.88;5055424;28;20477;-69
2021/03/08 08:28:18;;;;;;;1.00;0.50;;;;;;;1.71;88.49;101759.84;5055689;28;20447;-68
2021/03/08 08:30:45;;;;;;;1.03;0.67;;;;;;;1.83;88.35;101761.84;5055811;28;20434;-69
2021/03/08 08:33:26;;;;;;;0.40;0.30;;;;;;;1.91;87.69;101751.75;5055731;28;20442;-70
2021/03/08 08:36:07;;;;;;;0.40;0.30;;;;;;;1.96;86.60;101759.09;5055458;28;20446;-69
2021/03/08 08:38:33;;;;;;;0.40;0.30;;;;;;;1.99;85.89;101761.31;5055566;28;20426;-70
2021/03/08 08:41:22;;;;;;;0.60;0.50;;;;;;;2.03;84.77;101762.53;5055301;28;20439;-70
2021/03/08 08:44:08;;;;;;;0.40;0.30;;;;;;;2.06;84.04;101755.97;5055207;28;21002;-69
2021/03/08 08:46:36;;;;;;;0.40;0.30;;;;;;;2.17;83.14;101765.94;5055031;28;20446;-71
2021/03/08 08:49:10;;;;;;;0.40;0.30;;;;;;;2.20;79.93;101776.22;5055491;28;20438;-70
2021/03/08 08:51:47;;;;;;;0.40;0.30;;;;;;;2.22;78.43;101782.19;5055317;28;20469;-75
2021/03/08 08:54:49;;;;;;;0.40;0.30;;;;;;;2.34;80.16;101775.06;5055151;28;20450;-72
2021/03/08 08:57:19;;;;;;;0.50;0.40;;;;;;;2.28;75.64;101778.63;5055170;28;20452;-72
2021/03/08 08:59:49;;;;;;;0.70;0.47;;;;;;;2.37;74.04;101784.53;5055181;28;20443;-69
2021/03/08 09:02:31;;;;;;;0.40;0.30;;;;;;;2.40;72.90;101782.25;5055101;28;20478;-69
2021/03/08 09:04:57;;;;;;;0.40;0.30;;;;;;;2.43;72.32;101789.00;5054982;28;20466;-68
2021/03/08 09:07:25;;;;;;;0.40;0.30;;;;;;;2.46;72.15;101784.03;5054802;28;20434;-69
2021/03/08 09:09:53;;;;;;;1.30;0.63;;;;;;;2.52;71.80;101787.69;5054881;28;20803;-69
2021/03/08 09:12:30;;;;;;;0.40;0.30;;;;;;;2.61;69.22;101791.78;5054909;28;20438;-69
2021/03/08 09:14:57;;;;;;;0.40;0.30;;;;;;;2.71;71.50;101786.75;5054455;28;20457;-68
2021/03/08 09:17:25;;;;;;;0.40;0.30;;;;;;;2.74;70.87;101794.31;5054769;28;20450;-69
2021/03/08 09:20:25;;;;;;;0.40;0.30;;;;;;;2.84;68.33;101798.38;5054435;28;20788;-69
2021/03/08 09:22:53;;;;;;;0.50;0.50;;;;;;;2.93;68.67;101794.38;5054805;28;20466;-69
2021/03/08 09:25:23;;;;;;;0.40;0.30;;;;;;;3.03;70.63;101800.03;5054463;28;21052;-69
2021/03/08 09:27:59;;;;;;;0.40;0.30;;;;;;;3.06;69.00;101794.25;5054649;28;20427;-68
2021/03/08 09:30:27;;;;;;;0.40;0.30;;;;;;;3.13;67.42;101800.34;5054616;28;20429;-68
2021/03/08 09:32:57;;;;;;;0.40;0.30;;;;;;;3.19;67.30;101798.66;5054487;28;20446;-69
2021/03/08 09:35:26;;;;;;;0.40;0.30;;;;;;;3.20;63.38;101805.63;5054439;28;20462;-68
2021/03/08 09:37:55;;;;;;;0.40;0.30;;;;;;;3.23;61.31;101803.34;5054466;28;20438;-69
2021/03/08 09:40:23;;;;;;;0.40;0.30;;;;;;;3.28;61.53;101798.13;5054051;28;20450;-68
2021/03/08 09:42:50;;;;;;;0.40;0.30;;;;;;;3.15;58.67;101792.09;5054248;28;20490;-68
2021/03/08 09:45:19;;;;;;;0.40;0.23;;;;;;;3.20;60.99;101792.25;5053935;28;20983;-69
2021/03/08 09:47:45;;;;;;;0.40;0.30;;;;;;;3.21;57.86;101789.34;5054234;28;20434;-68
2021/03/08 09:50:16;;;;;;;0.40;0.30;;;;;;;3.23;59.70;101795.31;5054221;28;20457;-68
2021/03/08 09:52:43;;;;;;;0.50;0.50;;;;;;;3.21;58.89;101794.69;5054224;28;20430;-69
2021/03/08 09:55:11;;;;;;;0.40;0.30;;;;;;;3.19;57.40;101791.44;5053760;28;20474;-69
2021/03/08 09:57:39;;;;;;;0.40;0.30;;;;;;;3.33;59.22;101788.63;5053731;28;20916;-68
2021/03/08 10:00:09;;;;;;;0.40;0.30;;;;;;;3.35;56.37;101794.56;5054023;28;20446;-71
2021/03/08 10:02:35;;;;;;;0.40;0.30;;;;;;;3.50;57.98;101800.38;5053184;28;20529;-71
2021/03/08 10:05:02;;;;;;;0.40;0.30;;;;;;;3.56;58.02;101796.78;5053505;28;20458;-70
2021/03/08 10:07:28;;;;;;;0.40;0.30;;;;;;;3.61;53.59;101796.94;5053166;28;20448;-71
2021/03/08 10:10:11;;;;;;;0.40;0.30;;;;;;;3.67;53.14;101792.53;5053398;28;20484;-70
2021/03/08 10:12:38;;;;;;;0.40;0.30;;;;;;;3.63;51.67;101797.53;5053232;28;20579;-72
2021/03/08 10:15:06;;;;;;;0.40;0.30;;;;;;;3.54;50.05;101804.22;5053209;28;20596;-70
2021/03/08 10:17:33;;;;;;;0.40;0.30;;;;;;;3.64;49.48;101799.16;5053069;28;20445;-69
2021/03/08 10:20:01;;;;;;;0.87;0.77;;;;;;;3.80;46.93;101801.22;5052949;28;20540;-69
2021/03/08 10:22:37;;;;;;;0.40;0.30;;;;;;;3.94;48.17;101809.94;5052799;28;20536;-69
2021/03/08 10:25:19;;;;;;;0.40;0.30;;;;;;;3.99;46.84;101807.38;5052625;28;20565;-68
2021/03/08 10:27:45;;;;;;;0.40;0.30;;;;;;;4.06;47.65;101807.28;5058198;28;20433;-69
2021/03/08 10:30:14;;;;;;;0.40;0.30;;;;;;;4.11;45.45;101807.41;5054962;28;20452;-69
2021/03/08 10:32:42;;;;;;;0.40;0.30;;;;;;;4.13;47.11;101808.00;5052770;28;20450;-68
2021/03/08 10:35:10;;;;;;;0.40;0.20;;;;;;;4.21;47.95;101805.03;5052456;28;20861;-69
2021/03/08 10:37:37;;;;;;;0.40;0.27;;;;;;;4.37;50.49;101797.34;5052780;28;20438;-69
2021/03/08 10:40:05;;;;;;;0.40;0.20;;;;;;;4.53;48.26;101796.69;5052164;28;20997;-68
2021/03/08 10:42:32;;;;;;;0.40;0.30;;;;;;;4.58;46.40;101812.09;5052210;28;20485;-69
2021/03/08 10:44:59;;;;;;;0.40;0.30;;;;;;;4.66;47.77;101812.59;5052302;28;20458;-69
2021/03/08 10:47:25;;;;;;;0.40;0.30;;;;;;;4.83;49.60;101806.53;5052581;28;20499;-69
2021/03/08 10:49:53;;;;;;;0.40;0.30;;;;;;;4.89;49.06;101808.28;5052779;28;20452;-69
2021/03/08 10:52:19;;;;;;;0.40;0.30;;;;;;;4.91;49.25;101811.53;5052543;28;20442;-69
2021/03/08 10:54:47;;;;;;;0.40;0.30;;;;;;;4.93;48.61;101804.91;5052207;28;20474;-68
2021/03/08 10:57:13;;;;;;;0.40;0.30;;;;;;;5.04;49.38;101806.75;5052425;28;20516;-69
2021/03/08 10:59:46;;;;;;;0.40;0.30;;;;;;;5.23;48.06;101810.16;5052196;28;20481;-69
2021/03/08 11:02:14;;;;;;;0.40;0.30;;;;;;;5.24;45.45;101817.16;5052354;28;20856;-68
2021/03/08 11:04:41;;;;;;;0.40;0.30;;;;;;;5.15;44.22;101809.69;5052321;28;20458;-68
2021/03/08 11:07:08;;;;;;;0.40;0.20;;;;;;;5.25;43.80;101810.72;5052302;28;20465;-68
2021/03/08 11:09:36;;;;;;;0.40;0.30;;;;;;;5.52;43.53;101810.22;5052126;28;20806;-68
2021/03/08 11:12:03;;;;;;;0.40;0.30;;;;;;;5.53;41.90;101814.53;5052274;28;20438;-68
2021/03/08 11:14:29;;;;;;;0.40;0.30;;;;;;;5.49;41.35;101818.75;5052200;28;20466;-67
2021/03/08 11:16:57;;;;;;;0.40;0.27;;;;;;;5.70;41.56;101815.44;5052392;28;20434;-68
2021/03/08 11:19:25;;;;;;;0.40;0.30;;;;;;;6.00;40.44;101809.88;5052167;28;20480;-68
2021/03/08 11:22:03;;;;;;;0.40;0.30;;;;;;;6.26;40.76;101813.84;5051899;28;20827;-70
2021/03/08 11:24:31;;;;;;;0.40;0.30;;;;;;;6.39;38.77;101806.53;5052399;28;20518;-70
2021/03/08 11:27:15;;;;;;;0.40;0.30;;;;;;;6.63;39.04;101801.81;5052361;28;20454;-69
2021/03/08 11:29:55;;;;;;;0.40;0.30;;;;;;;6.85;38.77;101808.09;5052027;28;20503;-69
2021/03/08 11:32:22;;;;;;;1.00;0.50;;;;;;;7.05;40.25;101800.34;5052213;28;20418;-68
2021/03/08 11:34:52;;;;;;;0.40;0.30;;;;;;;7.30;38.95;101805.28;5052044;28;20458;-68
2021/03/08 11:37:19;;;;;;;0.40;0.30;;;;;;;7.61;39.30;101800.25;5052122;28;20446;-68